createdAt,value
2018-08-20T00:57:23.758Z,17.70
2018-08-20T00:59:52.161Z,17.70
2018-08-20T01:02:26.760Z,17.60
2018-08-20T01:04:55.169Z,17.60
2018-08-20T01:07:23.544Z,17.60
2018-08-20T01:09:53.038Z,17.50
2018-08-20T01:12:21.422Z,17.50
2018-08-20T01:14:51.317Z,17.50
2018-08-20T01:17:20.325Z,17.40
2018-08-20T01:19:49.052Z,17.40
2018-08-20T01:22:18.072Z,17.40
2018-08-20T01:24:47.222Z,17.40
2018-08-20T01:27:32.092Z,17.40
2018-08-20T01:30:01.849Z,17.40
2018-08-20T01:32:30.464Z,17.40
2018-08-20T01:35:14.891Z,17.40
2018-08-20T01:37:43.692Z,17.30
2018-08-20T01:40:12.203Z,17.40
2018-08-20T01:42:40.644Z,17.40
2018-08-20T01:45:09.080Z,17.40
2018-08-20T01:47:37.675Z,17.40
2018-08-20T01:50:06.185Z,17.40
2018-08-20T01:52:34.635Z,17.40
2018-08-20T01:55:03.026Z,17.40
2018-08-20T01:57:32.031Z,17.40
2018-08-20T02:00:00.573Z,17.40
2018-08-20T02:02:29.161Z,17.50
2018-08-20T02:04:58.088Z,17.50
2018-08-20T02:07:26.755Z,17.50
2018-08-20T02:09:55.166Z,17.40
2018-08-20T02:12:23.678Z,17.40
2018-08-20T02:14:52.066Z,17.40
2018-08-20T02:17:20.631Z,17.40
2018-08-20T02:19:49.432Z,17.40
2018-08-20T02:22:18.165Z,17.30
2018-08-20T02:24:46.975Z,17.30
2018-08-20T02:27:15.861Z,17.30
2018-08-20T02:29:44.284Z,17.30
2018-08-20T02:32:12.677Z,17.30
2018-08-20T02:34:41.064Z,17.30
2018-08-20T02:37:09.519Z,17.30
2018-08-20T02:39:37.921Z,17.30
2018-08-20T02:42:06.950Z,17.30
2018-08-20T02:44:35.391Z,17.30
2018-08-20T02:47:05.520Z,17.20
2018-08-20T02:49:34.676Z,17.30
2018-08-20T02:52:03.100Z,17.20
2018-08-20T02:54:31.577Z,17.20
2018-08-20T02:57:00.257Z,17.20
2018-08-20T02:59:29.554Z,17.20
2018-08-20T03:01:58.165Z,17.10
2018-08-20T03:04:26.586Z,17.20
2018-08-20T03:06:55.445Z,17.10
2018-08-20T03:09:24.398Z,17.10
2018-08-20T03:11:52.822Z,17.10
2018-08-20T03:14:21.230Z,17.10
2018-08-20T03:16:50.231Z,17.10
2018-08-20T03:19:19.011Z,17.10
2018-08-20T03:21:47.406Z,17.10
2018-08-20T03:24:15.825Z,17.10
2018-08-20T03:26:44.378Z,17.00
2018-08-20T03:29:12.894Z,17.00
2018-08-20T03:31:41.337Z,17.00
2018-08-20T03:34:09.760Z,17.00
2018-08-20T03:36:38.807Z,17.00
2018-08-20T03:39:08.350Z,17.00
2018-08-20T03:41:36.989Z,17.00
2018-08-20T03:44:05.707Z,16.90
2018-08-20T03:46:34.288Z,16.90
2018-08-20T03:49:03.291Z,16.90
2018-08-20T03:51:31.696Z,17.00
2018-08-20T03:54:00.403Z,17.00
2018-08-20T03:56:28.833Z,17.00
2018-08-20T03:58:57.305Z,17.00
2018-08-20T04:01:26.846Z,17.00
2018-08-20T04:03:55.602Z,16.90
2018-08-20T04:06:24.240Z,17.00
2018-08-20T04:08:53.200Z,16.90
2018-08-20T04:11:21.651Z,16.90
2018-08-20T04:13:50.275Z,16.90
2018-08-20T04:16:18.665Z,16.90
2018-08-20T04:18:47.211Z,16.80
2018-08-20T04:21:16.101Z,16.80
2018-08-20T04:23:45.236Z,16.80
2018-08-20T04:26:14.105Z,16.80
2018-08-20T04:28:42.496Z,16.80
2018-08-20T04:31:11.687Z,16.80
2018-08-20T04:33:40.225Z,16.80
2018-08-20T04:36:08.686Z,16.80
2018-08-20T04:38:37.379Z,16.90
2018-08-20T04:41:05.970Z,16.90
2018-08-20T04:43:34.658Z,16.90
2018-08-20T04:46:03.143Z,17.00
2018-08-20T04:48:31.610Z,17.00
2018-08-20T04:51:00.160Z,17.00
2018-08-20T04:53:29.069Z,17.10
2018-08-20T04:55:57.675Z,17.10
2018-08-20T04:58:26.368Z,17.20
2018-08-20T05:00:54.780Z,17.20
2018-08-20T05:03:23.471Z,17.30
2018-08-20T05:05:52.705Z,17.40
2018-08-20T05:08:21.460Z,17.40
2018-08-20T05:10:49.919Z,17.50
2018-08-20T05:13:18.339Z,17.60
2018-08-20T05:15:47.090Z,17.60
2018-08-20T05:18:15.830Z,17.70
2018-08-20T05:20:44.849Z,17.80
2018-08-20T05:23:13.254Z,17.80
2018-08-20T05:25:41.668Z,17.90
2018-08-20T05:28:10.470Z,18.00
2018-08-20T05:30:38.894Z,18.10
2018-08-20T05:33:07.537Z,18.20
2018-08-20T05:35:36.168Z,18.30
2018-08-20T05:38:04.855Z,18.30
2018-08-20T05:40:33.286Z,18.40
2018-08-20T05:43:01.797Z,18.50
2018-08-20T05:45:30.572Z,18.60
2018-08-20T05:48:00.045Z,18.80
2018-08-20T05:50:28.455Z,19.00
2018-08-20T05:52:56.996Z,19.00
2018-08-20T05:55:25.645Z,19.20
2018-08-20T05:57:54.561Z,19.20
2018-08-20T06:00:23.149Z,19.40
2018-08-20T06:02:51.593Z,19.60
2018-08-20T06:05:20.194Z,19.80
2018-08-20T06:07:49.625Z,20.00
2018-08-20T06:10:18.093Z,20.10
2018-08-20T06:12:46.903Z,20.20
2018-08-20T06:15:15.442Z,20.30
2018-08-20T06:17:44.005Z,20.50
2018-08-20T06:20:16.171Z,20.70
2018-08-20T06:22:45.314Z,21.30
2018-08-20T06:25:14.504Z,22.30
2018-08-20T06:27:43.369Z,23.30
2018-08-20T06:30:17.176Z,24.30
2018-08-20T06:32:46.763Z,25.20
2018-08-20T06:35:15.208Z,25.80
2018-08-20T06:37:43.608Z,26.30
2018-08-20T06:40:13.733Z,26.50
2018-08-20T06:42:42.297Z,26.50
2018-08-20T06:45:16.182Z,27.10
2018-08-20T06:47:46.177Z,27.30
2018-08-20T06:50:16.209Z,27.50
2018-08-20T06:52:45.685Z,27.80
2018-08-20T06:55:15.414Z,28.10
2018-08-20T06:57:45.090Z,28.60
2018-08-20T07:00:14.918Z,29.10
2018-08-20T07:02:43.423Z,29.70
2018-08-20T07:05:12.006Z,29.90
2018-08-20T07:07:40.966Z,30.30
2018-08-20T07:10:12.316Z,30.30
2018-08-20T07:12:41.400Z,30.80
2018-08-20T07:15:11.788Z,31.30
2018-08-20T07:17:41.618Z,31.30
2018-08-20T07:20:11.941Z,31.40
2018-08-20T07:22:40.449Z,32.00
2018-08-20T07:25:09.576Z,32.10
2018-08-20T07:27:38.581Z,32.20
2018-08-20T07:30:09.256Z,32.40
2018-08-20T07:32:38.189Z,32.30
2018-08-20T07:35:07.231Z,32.80
2018-08-20T07:37:35.785Z,33.10
2018-08-20T07:40:05.711Z,33.80
2018-08-20T07:42:34.335Z,34.20
2018-08-20T07:45:02.916Z,34.30
2018-08-20T07:47:32.197Z,34.70
2018-08-20T07:50:00.796Z,34.80
2018-08-20T07:52:29.397Z,34.50
2018-08-20T07:54:58.867Z,35.10
2018-08-20T07:57:27.277Z,34.80
2018-08-20T07:59:56.532Z,34.50
2018-08-20T08:02:24.938Z,34.30
2018-08-20T08:04:53.530Z,34.30
2018-08-20T08:07:22.112Z,34.70
2018-08-20T08:09:50.480Z,34.50
2018-08-20T08:12:19.338Z,35.10
2018-08-20T08:14:47.994Z,35.50
2018-08-20T08:17:16.636Z,35.10
2018-08-20T08:19:45.864Z,35.00
2018-08-20T08:22:14.255Z,35.40
2018-08-20T08:24:43.313Z,35.70
2018-08-20T08:27:11.936Z,35.50
2018-08-20T08:29:40.460Z,35.60
2018-08-20T08:32:08.939Z,35.90
2018-08-20T08:34:37.753Z,35.50
2018-08-20T08:37:06.714Z,35.30
2018-08-20T08:39:35.463Z,35.70
2018-08-20T08:42:04.689Z,35.80
2018-08-20T08:44:33.175Z,35.60
2018-08-20T08:47:02.008Z,35.50
2018-08-20T08:49:30.444Z,36.10
2018-08-20T08:51:59.385Z,35.50
2018-08-20T08:54:27.992Z,35.90
2018-08-20T08:56:56.478Z,35.80
2018-08-20T08:59:25.111Z,36.20
2018-08-20T09:01:54.304Z,36.30
2018-08-20T09:04:22.905Z,36.00
2018-08-20T09:06:51.401Z,35.80
2018-08-20T09:09:22.189Z,35.90
2018-08-20T09:11:50.614Z,35.40
2018-08-20T09:14:19.837Z,34.90
2018-08-20T09:16:48.494Z,35.10
2018-08-20T09:19:17.219Z,36.00
2018-08-20T09:21:46.104Z,36.00
2018-08-20T09:24:14.751Z,35.70
2018-08-20T09:26:43.196Z,36.20
2018-08-20T09:29:12.186Z,35.90
2018-08-20T09:31:40.686Z,36.00
2018-08-20T09:34:09.116Z,36.50
2018-08-20T09:36:39.043Z,36.70
2018-08-20T09:39:08.076Z,36.30
2018-08-20T09:41:36.577Z,36.00
2018-08-20T09:44:05.302Z,36.00
2018-08-20T09:46:33.962Z,36.50
2018-08-20T09:49:02.941Z,36.50
2018-08-20T09:51:32.595Z,37.40
2018-08-20T09:54:01.133Z,37.20
2018-08-20T09:56:30.595Z,37.50
2018-08-20T09:58:59.516Z,37.80
2018-08-20T10:01:28.868Z,37.60
2018-08-20T10:03:57.400Z,37.90
2018-08-20T10:06:28.079Z,37.40
2018-08-20T10:08:56.533Z,37.50
2018-08-20T10:11:25.085Z,37.30
2018-08-20T10:13:54.281Z,37.10
2018-08-20T10:16:23.112Z,36.90
2018-08-20T10:18:52.234Z,37.10
2018-08-20T10:21:20.629Z,37.10
2018-08-20T10:23:49.367Z,37.40
2018-08-20T10:26:17.785Z,37.60
2018-08-20T10:28:46.789Z,37.40
2018-08-20T10:31:15.337Z,37.00
2018-08-20T10:33:43.891Z,36.40
2018-08-20T10:36:12.467Z,35.70
2018-08-20T10:38:40.880Z,35.80
2018-08-20T10:41:10.416Z,35.50
2018-08-20T10:43:39.079Z,35.30
2018-08-20T10:46:13.515Z,34.60
2018-08-20T10:48:42.127Z,34.00
2018-08-20T10:51:10.605Z,33.20
2018-08-20T10:53:39.609Z,33.00
2018-08-20T10:56:08.504Z,32.60
2018-08-20T10:58:37.137Z,32.20
2018-08-20T11:01:06.304Z,32.40
2018-08-20T11:03:34.869Z,33.00
2018-08-20T11:06:03.456Z,33.40
2018-08-20T11:08:31.881Z,33.60
2018-08-20T11:11:00.930Z,33.80
2018-08-20T11:13:29.305Z,34.20
2018-08-20T11:15:58.320Z,33.80
2018-08-20T11:18:28.415Z,33.30
2018-08-20T11:20:56.795Z,32.70
2018-08-20T11:23:25.213Z,32.20
2018-08-20T11:25:54.222Z,32.30
2018-08-20T11:28:22.954Z,32.40
2018-08-20T11:30:52.399Z,32.60
2018-08-20T11:33:20.997Z,32.70
2018-08-20T11:35:49.683Z,32.90
2018-08-20T11:38:18.165Z,32.70
2018-08-20T11:40:46.879Z,32.80
2018-08-20T11:43:15.540Z,32.80
2018-08-20T11:45:44.208Z,32.80
2018-08-20T11:48:12.577Z,33.10
2018-08-20T11:50:41.337Z,33.00
2018-08-20T11:53:10.483Z,33.00
2018-08-20T11:55:39.595Z,33.00
2018-08-20T11:58:08.635Z,32.80
2018-08-20T12:00:37.097Z,32.40
2018-08-20T12:03:06.929Z,32.50
2018-08-20T12:05:35.543Z,32.60
2018-08-20T12:08:04.034Z,32.50
2018-08-20T12:10:32.646Z,32.60
2018-08-20T12:13:01.185Z,32.40
2018-08-20T12:15:30.304Z,32.50
2018-08-20T12:17:58.844Z,32.70
2018-08-20T12:20:27.688Z,32.70
2018-08-20T12:22:56.413Z,32.50
2018-08-20T12:25:25.901Z,32.50
2018-08-20T12:27:55.498Z,32.50
2018-08-20T12:30:24.232Z,32.50
2018-08-20T12:32:52.856Z,32.40
2018-08-20T12:35:22.651Z,32.20
2018-08-20T12:37:51.353Z,32.20
2018-08-20T12:40:19.886Z,32.10
2018-08-20T12:42:48.579Z,32.10
2018-08-20T12:45:17.045Z,32.10
2018-08-20T12:47:45.920Z,32.10
2018-08-20T12:50:14.506Z,32.20
2018-08-20T12:52:42.864Z,32.30
2018-08-20T12:55:11.369Z,32.30
2018-08-20T12:57:42.707Z,32.30
2018-08-20T13:00:11.258Z,32.10
2018-08-20T13:02:39.708Z,32.00
2018-08-20T13:05:10.150Z,32.30
2018-08-20T13:07:38.673Z,32.30
2018-08-20T13:10:07.443Z,32.30
2018-08-20T13:12:36.116Z,32.20
2018-08-20T13:15:04.944Z,32.20
2018-08-20T13:17:33.660Z,32.20
2018-08-20T13:20:02.127Z,32.10
2018-08-20T13:22:30.520Z,32.20
2018-08-20T13:24:59.621Z,32.20
2018-08-20T13:27:28.261Z,32.30
2018-08-20T13:29:56.827Z,32.20
2018-08-20T13:32:25.459Z,32.20
2018-08-20T13:34:54.024Z,32.30
2018-08-20T13:37:22.628Z,32.50
2018-08-20T13:39:51.676Z,32.60
2018-08-20T13:42:20.192Z,32.60
2018-08-20T13:44:48.611Z,32.50
2018-08-20T13:47:17.298Z,32.40
2018-08-20T13:49:46.459Z,32.20
2018-08-20T13:52:14.925Z,32.20
2018-08-20T13:54:43.528Z,32.10
2018-08-20T13:57:12.114Z,32.10
2018-08-20T13:59:40.973Z,32.10
2018-08-20T14:02:09.572Z,32.00
2018-08-20T14:04:38.702Z,31.90
2018-08-20T14:07:07.430Z,32.00
2018-08-20T14:09:36.107Z,32.20
2018-08-20T14:12:04.928Z,32.10
2018-08-20T14:14:33.832Z,32.10
2018-08-20T14:17:02.879Z,32.20
2018-08-20T14:19:31.312Z,32.20
2018-08-20T14:21:59.749Z,32.30
2018-08-20T14:24:28.918Z,32.10
2018-08-20T14:26:57.651Z,31.70
2018-08-20T14:29:26.335Z,31.70
2018-08-20T14:31:54.930Z,31.50
2018-08-20T14:34:23.358Z,31.40
2018-08-20T14:36:52.364Z,31.40
2018-08-20T14:39:21.251Z,31.30
2018-08-20T14:41:50.632Z,31.40
2018-08-20T14:44:19.369Z,31.10
2018-08-20T14:46:47.760Z,31.10
2018-08-20T14:49:16.232Z,31.00
2018-08-20T14:51:45.312Z,31.00
2018-08-20T14:54:13.937Z,31.10
2018-08-20T14:56:42.603Z,31.20
2018-08-20T14:59:11.189Z,31.40
2018-08-20T15:01:40.355Z,31.30
2018-08-20T15:04:09.205Z,31.30
2018-08-20T15:07:01.916Z,31.20
2018-08-20T15:09:31.100Z,31.10
2018-08-20T15:12:00.370Z,31.20
2018-08-20T15:14:30.152Z,31.10
2018-08-20T15:16:59.108Z,30.80
2018-08-20T15:19:27.903Z,30.70
2018-08-20T15:21:56.401Z,30.60
2018-08-20T15:24:25.754Z,30.70
2018-08-20T15:26:54.574Z,30.80
2018-08-20T15:29:23.394Z,30.80
2018-08-20T15:31:51.911Z,30.80
2018-08-20T15:34:20.544Z,30.60
2018-08-20T15:36:49.223Z,30.60
2018-08-20T15:39:18.056Z,30.60
2018-08-20T15:41:46.491Z,30.40
2018-08-20T15:44:15.379Z,30.30
2018-08-20T15:46:46.249Z,30.30
2018-08-20T15:49:14.709Z,30.20
2018-08-20T15:51:43.245Z,30.10
2018-08-20T15:54:12.124Z,29.90
2018-08-20T15:56:40.993Z,29.80
2018-08-20T15:59:09.420Z,29.80
2018-08-20T16:01:38.287Z,29.70
2018-08-20T16:04:07.172Z,29.80
2018-08-20T16:06:35.638Z,29.80
2018-08-20T16:09:05.439Z,29.80
2018-08-20T16:11:34.966Z,29.70
2018-08-20T16:14:03.810Z,29.60
2018-08-20T16:16:32.466Z,29.50
2018-08-20T16:19:01.765Z,29.40
2018-08-20T16:21:30.353Z,29.30
2018-08-20T16:23:58.819Z,29.20
2018-08-20T16:26:27.431Z,29.10
2018-08-20T16:28:56.238Z,29.00
2018-08-20T16:31:25.291Z,28.80
2018-08-20T16:33:53.979Z,28.60
2018-08-20T16:36:22.422Z,28.60
2018-08-20T16:38:51.539Z,28.50
2018-08-20T16:41:20.784Z,28.50
2018-08-20T16:43:49.265Z,28.50
2018-08-20T16:46:18.612Z,28.40
2018-08-20T16:48:47.906Z,28.30
2018-08-20T16:51:16.699Z,28.20
2018-08-20T16:53:45.619Z,28.10
2018-08-20T16:56:14.886Z,28.00
2018-08-20T16:58:43.513Z,27.90
2018-08-20T17:01:18.441Z,28.00
2018-08-20T17:03:46.970Z,27.80
2018-08-20T17:06:16.500Z,27.60
2018-08-20T17:08:45.603Z,27.50
2018-08-20T17:11:14.655Z,27.40
2018-08-20T17:13:44.317Z,27.30
2018-08-20T17:16:14.310Z,27.30
2018-08-20T17:18:43.724Z,27.20
2018-08-20T17:21:13.485Z,27.20
2018-08-20T17:23:42.164Z,27.20
2018-08-20T17:26:10.854Z,27.10
2018-08-20T17:28:39.541Z,27.00
2018-08-20T17:31:11.892Z,26.90
2018-08-20T17:33:40.359Z,26.90
2018-08-20T17:36:09.064Z,26.80
2018-08-20T17:38:40.988Z,26.70
2018-08-20T17:41:09.878Z,26.50
2018-08-20T17:43:38.360Z,26.40
2018-08-20T17:46:07.197Z,26.30
2018-08-20T17:48:35.916Z,26.20
2018-08-20T17:51:04.507Z,26.10
2018-08-20T17:53:44.483Z,26.00
2018-08-20T17:56:13.351Z,25.90
2018-08-20T17:58:43.576Z,25.70
2018-08-20T18:01:12.435Z,25.60
2018-08-20T18:03:43.664Z,25.60
2018-08-20T18:06:12.452Z,25.50
2018-08-20T18:08:42.013Z,25.40
2018-08-20T18:11:11.507Z,25.30
2018-08-20T18:13:45.537Z,25.20
2018-08-20T18:16:16.409Z,25.10
2018-08-20T18:18:46.943Z,25.00
2018-08-20T18:21:16.481Z,24.90
2018-08-20T18:23:45.876Z,24.80
2018-08-20T18:26:15.012Z,24.70
2018-08-20T18:28:48.725Z,24.60
2018-08-20T18:31:22.335Z,24.50
2018-08-20T18:33:50.788Z,24.40
2018-08-20T18:36:22.690Z,24.30
2018-08-20T18:38:59.620Z,24.20
2018-08-20T18:42:20.738Z,24.20
2018-08-20T18:44:50.102Z,24.10
2018-08-20T18:47:19.204Z,24.00
2018-08-20T18:49:54.476Z,23.90
2018-08-20T18:52:24.113Z,23.70
2018-08-20T18:54:53.958Z,23.70
2018-08-20T18:57:24.293Z,23.60
2018-08-20T18:59:53.427Z,23.50
2018-08-20T19:02:37.955Z,23.30
2018-08-20T19:05:10.293Z,23.30
2018-08-20T19:07:39.091Z,23.20
2018-08-20T19:10:39.965Z,23.10
2018-08-20T19:13:08.645Z,23.00
2018-08-20T19:15:39.179Z,22.90
2018-08-20T19:18:10.355Z,22.80
2018-08-20T19:20:39.797Z,22.70
2018-08-20T19:23:08.679Z,22.60
2018-08-20T19:25:38.672Z,22.50
2018-08-20T19:28:12.708Z,22.40
2018-08-20T19:30:42.562Z,22.40
2018-08-20T19:33:16.398Z,22.30
2018-08-20T19:35:45.988Z,22.30
2018-08-20T19:38:14.514Z,22.10
2018-08-20T19:40:43.190Z,22.00
2018-08-20T19:43:11.641Z,22.00
2018-08-20T19:45:44.220Z,21.90
2018-08-20T19:48:13.754Z,21.90
2018-08-20T19:50:42.599Z,21.80
2018-08-20T19:53:15.810Z,21.80
2018-08-20T19:55:44.950Z,21.70
2018-08-20T19:58:21.010Z,21.60
2018-08-20T20:01:26.261Z,21.60
2018-08-20T20:03:56.229Z,21.50
2018-08-20T20:06:24.689Z,21.50
2018-08-20T20:08:53.542Z,21.40
2018-08-20T20:11:28.407Z,21.40
2018-08-20T20:14:02.371Z,21.30
2018-08-20T20:16:39.739Z,21.20
2018-08-20T20:19:09.552Z,21.20
2018-08-20T20:21:39.265Z,21.20
2018-08-20T20:24:09.030Z,21.10
2018-08-20T20:26:37.905Z,21.00
2018-08-20T20:29:11.755Z,20.90
2018-08-20T20:31:41.428Z,20.90
2018-08-20T20:34:10.388Z,20.80
2018-08-20T20:36:39.883Z,20.70
2018-08-20T20:39:14.160Z,20.70
2018-08-20T20:41:43.559Z,20.70
2018-08-20T20:44:13.371Z,20.60
2018-08-20T20:46:42.601Z,20.50
2018-08-20T20:49:11.848Z,20.50
2018-08-20T20:51:42.820Z,20.40
2018-08-20T20:54:12.372Z,20.40
2018-08-20T20:56:40.932Z,20.30
2018-08-20T20:59:09.881Z,20.30
2018-08-20T21:01:38.365Z,20.20
2018-08-20T21:04:08.459Z,20.20
2018-08-20T21:06:39.248Z,20.20
2018-08-20T21:09:09.612Z,20.10
2018-08-20T21:11:39.432Z,20.10
2018-08-20T21:14:08.457Z,20.10
2018-08-20T21:16:37.075Z,20.00
2018-08-20T21:19:06.197Z,20.00
2018-08-20T21:21:34.860Z,20.00
2018-08-20T21:24:06.411Z,20.00
2018-08-20T21:26:35.265Z,20.00
2018-08-20T21:29:04.371Z,20.00
2018-08-20T21:31:37.769Z,19.90
2018-08-20T21:34:07.341Z,19.90
2018-08-20T21:36:35.860Z,19.80
2018-08-20T21:39:07.099Z,19.80
2018-08-20T21:41:36.166Z,19.80
2018-08-20T21:44:05.217Z,19.70
2018-08-20T21:46:33.922Z,19.70
2018-08-20T21:49:03.434Z,19.60
2018-08-20T21:51:37.495Z,19.60
